Time;durP1;ratioP1;P1;durP2;ratioP2;P2;SDS_P1;SDS_P2;PMS_P1;PMS_P2;Temp;Humidity;BMP_temperature;BMP_pressure;BME280_temperature;BME280_humidity;BME280_pressure;Samples;Min_cycle;Max_cycle;Signal;HPM_P1;HPM_P2
2021/09/26 00:01:41;;;;;;;220.83;204.63;;;17.80;99.90;;;;;;5058077;28;20160;-83
2021/09/26 00:04:07;;;;;;;236.20;219.63;;;17.90;99.90;;;;;;5040217;28;20632;-83
2021/09/26 00:06:32;;;;;;;237.17;220.23;;;17.90;99.90;;;;;;5040558;28;20379;-83
2021/09/26 00:08:58;;;;;;;260.40;242.70;;;17.80;99.90;;;;;;5057954;28;20715;-83
2021/09/26 00:11:24;;;;;;;233.87;217.23;;;17.90;99.90;;;;;;5057254;28;20248;-83
2021/09/26 00:13:50;;;;;;;196.90;181.43;;;17.90;99.90;;;;;;5057145;28;20173;-83
2021/09/26 00:16:19;;;;;;;235.33;218.30;;;17.90;99.90;;;;;;5057271;28;20430;-83
2021/09/26 00:18:45;;;;;;;255.00;237.70;;;17.80;99.90;;;;;;5056804;28;20728;-83
2021/09/26 00:21:11;;;;;;;225.83;209.83;;;17.80;99.90;;;;;;5056626;28;20486;-83
2021/09/26 00:23:36;;;;;;;209.87;194.27;;;17.70;99.90;;;;;;5038796;28;20921;-84
2021/09/26 00:26:04;;;;;;;213.87;198.07;;;17.60;99.90;;;;;;5056514;28;20157;-83
2021/09/26 00:28:30;;;;;;;226.00;209.80;;;17.60;99.90;;;;;;5056802;28;20189;-83
2021/09/26 00:30:57;;;;;;;264.83;246.87;;;17.60;99.90;;;;;;5057637;28;20402;-83
2021/09/26 00:33:23;;;;;;;235.53;218.47;;;17.60;99.90;;;;;;5056987;28;20407;-83
2021/09/26 00:35:50;;;;;;;257.43;239.23;;;17.60;99.90;;;;;;5056654;28;20990;-83
2021/09/26 00:38:18;;;;;;;247.17;229.60;;;17.60;99.90;;;;;;5056313;28;20438;-84
2021/09/26 00:43:19;;;;;;;277.10;258.90;;;17.60;99.90;;;;;;4925119;22;20544;-82
2021/09/26 00:45:45;;;;;;;233.40;216.93;;;17.50;99.90;;;;;;5057124;28;20400;-83
2021/09/26 00:48:11;;;;;;;284.03;265.40;;;17.50;99.90;;;;;;5056975;28;20188;-83
2021/09/26 00:50:37;;;;;;;282.53;263.87;;;17.50;99.90;;;;;;5056706;28;20392;-83
2021/09/26 00:53:03;;;;;;;286.50;267.73;;;17.50;99.90;;;;;;5056775;28;20248;-82
2021/09/26 00:55:32;;;;;;;300.53;280.83;;;17.50;99.90;;;;;;5038726;28;20406;-83
2021/09/26 00:57:59;;;;;;;249.83;232.80;;;17.50;99.90;;;;;;5022559;28;20466;-82
2021/09/26 01:00:26;;;;;;;317.17;297.07;;;17.50;99.90;;;;;;5057235;28;20413;-83
2021/09/26 01:02:52;;;;;;;276.67;258.43;;;17.50;99.90;;;;;;5056943;28;20878;-83
2021/09/26 01:05:20;;;;;;;321.13;300.77;;;17.50;99.90;;;;;;5056942;28;20399;-83
2021/09/26 01:07:49;;;;;;;309.03;289.17;;;17.50;99.90;;;;;;5056212;28;20181;-82
2021/09/26 01:10:33;;;;;;;362.07;339.27;;;17.50;99.90;;;;;;5058230;28;20399;-83
2021/09/26 01:13:23;;;;;;;347.53;326.27;;;17.50;99.90;;;;;;5060380;28;20395;-82
2021/09/26 01:16:12;;;;;;;310.73;291.13;;;17.50;99.90;;;;;;5060082;28;20387;-83
2021/09/26 01:18:46;;;;;;;312.90;293.13;;;17.50;99.90;;;;;;5027357;28;20853;-82
2021/09/26 01:21:30;;;;;;;336.77;316.43;;;17.60;99.90;;;;;;5060673;28;20871;-82
2021/09/26 01:24:14;;;;;;;348.53;327.03;;;17.60;99.90;;;;;;5042480;28;20454;-83
2021/09/26 01:27:04;;;;;;;329.37;308.83;;;17.50;99.90;;;;;;5060185;28;20419;-82
2021/09/26 01:29:43;;;;;;;337.77;316.77;;;17.40;99.90;;;;;;5060724;28;20924;-83
2021/09/26 01:32:09;;;;;;;323.13;302.70;;;17.50;99.90;;;;;;5060387;28;20379;-83
2021/09/26 01:34:43;;;;;;;386.40;362.77;;;17.40;99.90;;;;;;5042102;28;20736;-83
2021/09/26 01:37:29;;;;;;;361.30;339.07;;;17.50;99.90;;;;;;5059773;28;20425;-83
2021/09/26 01:40:25;;;;;;;363.00;340.87;;;17.50;99.90;;;;;;5042190;28;20399;-83
2021/09/26 01:42:57;;;;;;;337.40;316.07;;;17.50;99.90;;;;;;5060224;28;20472;-83
2021/09/26 01:45:31;;;;;;;349.77;328.27;;;17.50;99.90;;;;;;5060870;28;20736;-83
2021/09/26 01:48:53;;;;;;;360.03;337.87;;;17.50;99.90;;;;;;5060296;28;20906;-83
2021/09/26 01:51:20;;;;;;;379.27;356.77;;;17.40;99.90;;;;;;5014159;28;20443;-82
2021/09/26 01:53:47;;;;;;;390.43;366.93;;;17.40;99.90;;;;;;5060108;28;20494;-83
2021/09/26 01:56:15;;;;;;;377.57;354.83;;;17.50;99.90;;;;;;5042402;28;20407;-83
2021/09/26 01:58:44;;;;;;;384.73;361.53;;;17.40;99.90;;;;;;5041468;28;20450;-82
2021/09/26 02:01:12;;;;;;;369.97;347.63;;;17.40;99.90;;;;;;5060162;28;20407;-83
2021/09/26 02:03:38;;;;;;;390.67;367.47;;;17.40;99.90;;;;;;5041564;28;20407;-83
2021/09/26 02:06:05;;;;;;;395.30;372.30;;;17.40;99.90;;;;;;5059249;28;20407;-84
2021/09/26 02:08:33;;;;;;;380.13;357.57;;;17.40;99.90;;;;;;5059686;28;20427;-85
2021/09/26 02:10:59;;;;;;;388.33;365.23;;;17.40;99.90;;;;;;5041711;28;20410;-85
2021/09/26 02:13:26;;;;;;;393.83;370.27;;;17.40;99.90;;;;;;5059487;28;20407;-85
2021/09/26 02:15:53;;;;;;;393.93;370.77;;;17.40;99.90;;;;;;5059184;28;20411;-85
2021/09/26 02:18:19;;;;;;;371.03;348.07;;;17.40;99.90;;;;;;5059135;28;20483;-84
2021/09/26 02:20:46;;;;;;;372.97;351.07;;;17.40;99.90;;;;;;5040718;28;20415;-84
2021/09/26 02:23:12;;;;;;;384.73;361.87;;;17.40;99.90;;;;;;5040446;28;20402;-84
2021/09/26 02:25:39;;;;;;;395.33;372.23;;;17.50;99.90;;;;;;5040941;28;20461;-84
2021/09/26 02:28:07;;;;;;;384.90;362.20;;;17.50;99.90;;;;;;5059277;28;20427;-84
2021/09/26 02:30:32;;;;;;;375.60;353.73;;;17.50;99.90;;;;;;5059392;28;20407;-84
2021/09/26 02:32:58;;;;;;;385.27;362.67;;;17.50;99.90;;;;;;5059120;28;20399;-84
2021/09/26 02:35:24;;;;;;;381.20;358.63;;;17.50;99.90;;;;;;5059028;28;20156;-84
2021/09/26 02:37:50;;;;;;;379.00;356.57;;;17.50;99.90;;;;;;5058584;28;20283;-84
2021/09/26 02:40:18;;;;;;;384.50;361.47;;;17.50;99.90;;;;;;5024718;28;20204;-84
2021/09/26 02:43:06;;;;;;;389.83;367.03;;;17.50;99.90;;;;;;5058898;28;20433;-84
2021/09/26 02:45:51;;;;;;;386.27;363.47;;;17.50;99.90;;;;;;5041845;28;20421;-84
2021/09/26 02:48:20;;;;;;;360.23;338.67;;;17.50;99.90;;;;;;5058955;28;20453;-84
2021/09/26 02:50:48;;;;;;;389.03;366.13;;;17.50;99.90;;;;;;5059398;28;20475;-84
2021/09/26 02:53:15;;;;;;;359.13;337.27;;;17.50;99.90;;;;;;5059153;28;20782;-84
2021/09/26 02:55:43;;;;;;;351.83;330.53;;;17.40;99.90;;;;;;5040333;28;20414;-84
2021/09/26 02:58:09;;;;;;;347.10;325.47;;;17.50;99.90;;;;;;5040049;28;20443;-85
2021/09/26 03:00:40;;;;;;;362.57;340.23;;;17.50;99.90;;;;;;5059092;28;20457;-84
2021/09/26 03:03:06;;;;;;;355.93;334.43;;;17.50;99.90;;;;;;5058334;28;20406;-85
2021/09/26 03:05:32;;;;;;;333.43;312.23;;;17.50;99.90;;;;;;5058755;28;20453;-85
2021/09/26 03:07:58;;;;;;;331.60;311.10;;;17.40;99.90;;;;;;5040598;28;20865;-84
2021/09/26 03:10:23;;;;;;;308.13;288.33;;;17.50;99.90;;;;;;5059179;28;20176;-84
2021/09/26 03:12:49;;;;;;;337.77;316.47;;;17.40;99.90;;;;;;5058685;28;20161;-85
2021/09/26 03:15:15;;;;;;;278.77;260.33;;;17.40;99.90;;;;;;5058094;28;20168;-85
2021/09/26 03:17:40;;;;;;;285.17;266.20;;;17.40;99.90;;;;;;5058574;28;20702;-85
2021/09/26 03:20:06;;;;;;;281.53;262.83;;;17.30;99.90;;;;;;5041453;28;20259;-85
2021/09/26 03:22:32;;;;;;;256.17;237.90;;;17.30;99.90;;;;;;5058831;28;20161;-84
2021/09/26 03:24:58;;;;;;;264.43;246.63;;;17.30;99.90;;;;;;5058424;28;20400;-84
2021/09/26 03:27:23;;;;;;;244.27;226.80;;;17.40;99.90;;;;;;5059136;28;20185;-85
2021/09/26 03:29:51;;;;;;;247.23;229.60;;;17.40;99.90;;;;;;5058537;28;20660;-85
2021/09/26 03:32:17;;;;;;;249.43;231.37;;;17.40;99.90;;;;;;5057853;28;20161;-84
2021/09/26 03:34:43;;;;;;;247.23;229.87;;;17.40;99.90;;;;;;5058551;28;20413;-84
2021/09/26 03:37:09;;;;;;;256.97;239.13;;;17.40;99.90;;;;;;5040277;28;20462;-85
2021/09/26 03:39:37;;;;;;;237.27;220.20;;;17.40;99.90;;;;;;5040247;28;20197;-85
2021/09/26 03:42:04;;;;;;;263.17;245.10;;;17.40;99.90;;;;;;5058249;28;20399;-85
2021/09/26 03:44:30;;;;;;;259.47;241.93;;;17.50;99.90;;;;;;5057257;28;20522;-85
2021/09/26 03:46:55;;;;;;;233.27;215.33;;;17.40;99.90;;;;;;5040593;28;20471;-85
2021/09/26 03:49:22;;;;;;;216.63;200.67;;;17.40;99.90;;;;;;5059205;28;20403;-85
2021/09/26 03:51:48;;;;;;;226.63;209.97;;;17.50;99.90;;;;;;5041619;28;20202;-85
2021/09/26 03:54:17;;;;;;;228.97;212.77;;;17.50;99.90;;;;;;5042383;28;20419;-85
2021/09/26 03:56:44;;;;;;;190.47;174.67;;;17.50;99.90;;;;;;5060125;28;20871;-85
2021/09/26 03:59:11;;;;;;;178.23;163.53;;;17.50;99.90;;;;;;5059333;28;20937;-85
2021/09/26 04:01:37;;;;;;;179.97;165.10;;;17.50;99.90;;;;;;5041696;28;20941;-85
2021/09/26 04:04:03;;;;;;;195.03;179.40;;;17.50;99.90;;;;;;5042075;28;20778;-85
2021/09/26 04:06:29;;;;;;;220.63;203.03;;;17.60;99.90;;;;;;5041532;28;20432;-85
2021/09/26 04:08:54;;;;;;;186.67;171.23;;;17.60;99.90;;;;;;5060181;28;20195;-85
2021/09/26 04:11:20;;;;;;;205.97;189.70;;;17.60;99.90;;;;;;5059855;28;20167;-85
2021/09/26 04:13:46;;;;;;;220.40;203.60;;;17.60;99.90;;;;;;5041931;28;20252;-85
2021/09/26 04:16:12;;;;;;;231.80;214.13;;;17.60;99.90;;;;;;5059376;28;20906;-85
2021/09/26 04:18:38;;;;;;;210.83;194.67;;;17.50;99.90;;;;;;5059865;28;20443;-85
2021/09/26 04:21:03;;;;;;;271.10;251.83;;;17.40;99.90;;;;;;5059520;28;20160;-85
2021/09/26 04:23:29;;;;;;;210.17;193.63;;;17.50;99.90;;;;;;5041361;28;20199;-85
2021/09/26 04:25:55;;;;;;;244.40;226.20;;;17.50;99.90;;;;;;5059490;28;20169;-85
2021/09/26 04:28:21;;;;;;;253.00;234.40;;;17.50;99.90;;;;;;5059400;28;20189;-84
2021/09/26 04:30:46;;;;;;;261.23;242.63;;;17.40;99.90;;;;;;5058755;28;20196;-85
2021/09/26 04:33:12;;;;;;;266.43;247.43;;;17.40;99.90;;;;;;5059520;28;20598;-85
2021/09/26 04:35:38;;;;;;;242.47;224.30;;;17.40;99.90;;;;;;5059253;28;20184;-85
2021/09/26 04:38:04;;;;;;;306.13;285.03;;;17.30;99.90;;;;;;5041415;28;20250;-85
2021/09/26 04:40:29;;;;;;;293.90;272.87;;;17.30;99.90;;;;;;5058414;28;20173;-85
2021/09/26 04:42:55;;;;;;;298.10;277.57;;;17.30;99.90;;;;;;5058202;28;20176;-85
2021/09/26 04:45:23;;;;;;;324.20;302.00;;;17.20;99.90;;;;;;5061283;28;20184;-85
2021/09/26 04:47:48;;;;;;;344.87;321.93;;;17.20;99.90;;;;;;5062078;28;20454;-85
2021/09/26 04:50:14;;;;;;;339.87;317.43;;;17.20;99.90;;;;;;5045057;28;20407;-85
2021/09/26 04:52:40;;;;;;;362.27;338.93;;;17.30;99.90;;;;;;5044902;28;20178;-85
2021/09/26 04:55:06;;;;;;;331.27;309.23;;;17.30;99.90;;;;;;5044391;28;20180;-85
2021/09/26 04:57:35;;;;;;;287.73;267.30;;;17.30;99.90;;;;;;5062029;28;20640;-85
2021/09/26 05:00:02;;;;;;;290.90;270.43;;;17.20;99.90;;;;;;5062237;28;20403;-85
2021/09/26 05:02:31;;;;;;;297.93;277.27;;;17.20;99.90;;;;;;5062093;28;20488;-85
2021/09/26 05:04:57;;;;;;;252.63;233.77;;;17.30;99.90;;;;;;5044280;28;20439;-85
2021/09/26 05:07:22;;;;;;;249.20;230.93;;;17.20;99.90;;;;;;5044517;28;20435;-84
2021/09/26 05:09:48;;;;;;;283.17;262.53;;;17.30;99.90;;;;;;5044154;28;20926;-85
2021/09/26 05:12:14;;;;;;;303.13;282.47;;;17.30;99.90;;;;;;5061934;28;20160;-85
2021/09/26 05:14:39;;;;;;;284.10;263.90;;;17.30;99.90;;;;;;5062100;28;20157;-85
2021/09/26 05:17:08;;;;;;;282.40;262.57;;;17.30;99.90;;;;;;5062454;28;20245;-85
2021/09/26 05:19:34;;;;;;;285.77;266.03;;;17.20;99.90;;;;;;5062036;28;20195;-85
2021/09/26 05:22:00;;;;;;;273.20;253.97;;;17.20;99.90;;;;;;5044309;28;20403;-85
2021/09/26 05:24:26;;;;;;;287.73;267.70;;;17.20;99.90;;;;;;5062495;28;20165;-85
2021/09/26 05:26:52;;;;;;;246.60;228.53;;;17.20;99.90;;;;;;5062531;28;20430;-85
2021/09/26 05:29:18;;;;;;;299.23;278.60;;;17.20;99.90;;;;;;5044555;28;20411;-85
2021/09/26 05:31:44;;;;;;;284.97;264.80;;;17.30;99.90;;;;;;5061456;28;20413;-85
2021/09/26 05:34:14;;;;;;;277.47;258.27;;;17.20;99.90;;;;;;5044010;28;20445;-85
2021/09/26 05:36:40;;;;;;;254.33;236.57;;;17.30;99.90;;;;;;5061847;28;20506;-85
2021/09/26 05:39:05;;;;;;;295.53;275.00;;;17.30;99.90;;;;;;5043477;28;20490;-85
2021/09/26 05:41:31;;;;;;;294.63;273.93;;;17.20;99.90;;;;;;5061772;28;20168;-85
2021/09/26 05:43:57;;;;;;;320.33;299.20;;;17.10;99.90;;;;;;5061750;28;20173;-85
2021/09/26 05:46:23;;;;;;;314.13;292.87;;;17.10;99.90;;;;;;5060881;28;20157;-85
2021/09/26 05:48:48;;;;;;;331.73;309.63;;;17.10;99.90;;;;;;5061965;28;20628;-84
2021/09/26 05:51:14;;;;;;;336.20;313.83;;;17.10;99.90;;;;;;5061465;28;20208;-85
2021/09/26 05:53:40;;;;;;;345.83;323.03;;;17.20;99.90;;;;;;5061769;28;20200;-85
2021/09/26 05:56:05;;;;;;;319.53;297.57;;;17.20;99.90;;;;;;5062599;28;20211;-85
2021/09/26 05:58:31;;;;;;;343.33;320.30;;;17.20;99.90;;;;;;5060741;28;20197;-85
2021/09/26 06:00:57;;;;;;;343.47;320.77;;;17.20;99.90;;;;;;5043538;28;20165;-85
2021/09/26 06:03:22;;;;;;;361.33;337.07;;;17.30;99.90;;;;;;5043572;28;20161;-85
2021/09/26 06:05:48;;;;;;;358.37;334.07;;;17.30;99.90;;;;;;5042997;28;20172;-85
2021/09/26 06:08:14;;;;;;;342.50;319.70;;;17.30;99.90;;;;;;5042986;28;20188;-85
2021/09/26 06:10:40;;;;;;;375.97;350.57;;;17.30;99.90;;;;;;5061389;28;20165;-85
2021/09/26 06:13:06;;;;;;;389.07;363.30;;;17.30;99.90;;;;;;5061897;28;20176;-85
2021/09/26 06:15:33;;;;;;;380.67;356.53;;;17.40;99.90;;;;;;5060998;28;20403;-85
2021/09/26 06:17:58;;;;;;;369.73;345.57;;;17.30;99.90;;;;;;5043022;28;20455;-85
2021/09/26 06:20:25;;;;;;;364.50;339.33;;;17.40;99.90;;;;;;5061283;28;20505;-85
2021/09/26 06:22:52;;;;;;;348.13;325.17;;;17.40;99.90;;;;;;5043176;28;20658;-85
2021/09/26 06:25:18;;;;;;;328.60;305.73;;;17.40;99.90;;;;;;5043134;28;20499;-85
2021/09/26 06:27:43;;;;;;;319.50;297.53;;;17.40;99.90;;;;;;5042635;28;20455;-85
2021/09/26 06:30:10;;;;;;;356.00;332.60;;;17.50;99.90;;;;;;5061083;28;20438;-85
2021/09/26 06:32:36;;;;;;;373.77;349.13;;;17.40;99.90;;;;;;5043257;28;20179;-85
2021/09/26 06:35:04;;;;;;;344.10;321.33;;;17.40;99.90;;;;;;5042665;28;20411;-85
2021/09/26 06:37:30;;;;;;;343.00;319.83;;;17.40;99.90;;;;;;5060395;28;20954;-85
2021/09/26 06:39:56;;;;;;;374.33;349.40;;;17.40;99.90;;;;;;5061072;28;20401;-85
2021/09/26 06:42:22;;;;;;;354.47;331.17;;;17.50;99.90;;;;;;5060652;28;20247;-85
2021/09/26 06:45:33;;;;;;;384.17;359.57;;;17.50;99.90;;;;;;5127796;22;20557;-84
2021/09/26 06:48:08;;;;;;;371.47;346.50;;;17.60;99.90;;;;;;4997042;28;20480;-83
2021/09/26 06:50:34;;;;;;;387.90;362.80;;;17.60;99.90;;;;;;5054363;28;20493;-82
2021/09/26 06:53:00;;;;;;;422.40;394.67;;;17.60;99.90;;;;;;5057180;28;20419;-83
2021/09/26 06:55:25;;;;;;;404.80;378.10;;;17.60;99.90;;;;;;5056490;28;20165;-82
2021/09/26 06:57:51;;;;;;;419.30;392.77;;;17.70;99.90;;;;;;5038839;28;20568;-81
2021/09/26 07:00:17;;;;;;;418.53;391.70;;;17.70;99.90;;;;;;5057462;28;20157;-82
2021/09/26 07:02:44;;;;;;;446.27;417.67;;;17.70;99.90;;;;;;5057665;28;20168;-83
2021/09/26 07:05:11;;;;;;;462.27;432.70;;;17.70;99.90;;;;;;5039421;28;20942;-80
2021/09/26 07:07:37;;;;;;;436.27;408.73;;;17.70;99.90;;;;;;5056997;28;20434;-81
2021/09/26 07:10:03;;;;;;;377.53;353.07;;;17.80;99.90;;;;;;5057177;28;20403;-81
2021/09/26 07:12:29;;;;;;;442.83;414.83;;;17.90;99.90;;;;;;5040194;28;20407;-82
2021/09/26 07:14:57;;;;;;;431.60;404.47;;;17.90;99.90;;;;;;5039614;28;20417;-81
2021/09/26 07:17:23;;;;;;;444.30;415.80;;;17.90;99.90;;;;;;5056929;28;20197;-83
2021/09/26 07:19:48;;;;;;;453.17;424.17;;;18.00;99.90;;;;;;5039568;28;20415;-82
2021/09/26 07:22:18;;;;;;;466.23;437.23;;;18.00;99.90;;;;;;5057240;28;20248;-81
2021/09/26 07:24:43;;;;;;;480.80;450.90;;;18.00;99.90;;;;;;5039230;28;20177;-83
2021/09/26 07:27:15;;;;;;;444.37;416.17;;;18.10;99.90;;;;;;5057483;28;20422;-81
2021/09/26 07:29:41;;;;;;;450.93;422.40;;;18.10;99.90;;;;;;5057244;28;20144;-83
2021/09/26 07:32:07;;;;;;;420.23;393.27;;;18.10;99.90;;;;;;5057614;28;20437;-84
2021/09/26 07:34:33;;;;;;;355.23;332.40;;;18.20;99.90;;;;;;5057369;28;20906;-83
2021/09/26 07:36:58;;;;;;;429.63;402.17;;;18.20;99.90;;;;;;5039673;28;20223;-83
2021/09/26 07:39:24;;;;;;;418.53;392.77;;;18.30;99.90;;;;;;5039198;28;20197;-83
2021/09/26 07:41:50;;;;;;;475.97;446.63;;;18.40;99.90;;;;;;5056672;28;20165;-83
2021/09/26 07:44:15;;;;;;;456.47;427.77;;;18.50;99.90;;;;;;5056417;28;20185;-83
2021/09/26 07:46:44;;;;;;;442.20;415.17;;;18.50;99.90;;;;;;5056315;28;20187;-83
2021/09/26 07:49:10;;;;;;;414.87;389.20;;;18.50;99.90;;;;;;5056913;28;20161;-83
2021/09/26 07:51:36;;;;;;;436.63;409.60;;;18.60;99.90;;;;;;5057116;28;20414;-84
2021/09/26 07:54:01;;;;;;;399.33;374.40;;;18.60;99.90;;;;;;5056648;28;20407;-84
2021/09/26 07:56:27;;;;;;;465.17;436.80;;;18.70;99.90;;;;;;5058108;28;20218;-85
2021/09/26 07:58:53;;;;;;;482.53;452.50;;;18.70;99.90;;;;;;5040069;28;20192;-84
2021/09/26 08:01:18;;;;;;;461.70;433.37;;;18.80;99.90;;;;;;5039369;28;20251;-85
2021/09/26 08:03:44;;;;;;;435.77;409.23;;;18.80;99.90;;;;;;5040036;28;20403;-85
2021/09/26 08:06:10;;;;;;;442.60;415.70;;;18.90;99.90;;;;;;5039754;28;20253;-85
2021/09/26 08:08:37;;;;;;;450.23;423.00;;;18.90;99.90;;;;;;5058033;28;20188;-85
2021/09/26 08:11:03;;;;;;;441.70;414.93;;;19.00;99.90;;;;;;5040129;28;20437;-84
2021/09/26 08:13:29;;;;;;;457.73;430.17;;;19.00;99.90;;;;;;5057402;28;20403;-85
2021/09/26 08:15:55;;;;;;;430.93;404.87;;;19.10;99.90;;;;;;5058243;28;20407;-85
2021/09/26 08:18:20;;;;;;;439.20;412.47;;;19.20;99.90;;;;;;5057965;28;20283;-85
2021/09/26 08:20:46;;;;;;;414.60;388.80;;;19.30;99.90;;;;;;5061481;28;20215;-85
2021/09/26 08:23:12;;;;;;;403.73;379.37;;;19.30;99.90;;;;;;5062631;28;20171;-85
2021/09/26 08:25:37;;;;;;;405.23;380.13;;;19.30;99.90;;;;;;5043657;28;20207;-84
2021/09/26 08:28:03;;;;;;;411.67;386.67;;;19.40;99.90;;;;;;5043763;28;20246;-84
2021/09/26 08:30:29;;;;;;;420.13;394.73;;;19.40;99.90;;;;;;5061802;28;20266;-84
2021/09/26 08:32:55;;;;;;;397.10;372.83;;;19.40;99.90;;;;;;5044035;28;20443;-85
2021/09/26 08:35:20;;;;;;;362.70;339.90;;;19.50;99.90;;;;;;5062133;28;20625;-84
2021/09/26 08:37:46;;;;;;;357.87;335.23;;;19.60;99.90;;;;;;5060793;28;20196;-85
2021/09/26 08:40:13;;;;;;;377.50;354.30;;;19.60;99.90;;;;;;5061067;28;20161;-85
2021/09/26 08:42:40;;;;;;;354.30;331.93;;;19.70;99.90;;;;;;5061458;28;20170;-85
2021/09/26 08:45:09;;;;;;;417.50;392.27;;;19.70;99.90;;;;;;5043342;28;20427;-84
2021/09/26 08:47:39;;;;;;;374.53;351.23;;;19.90;99.90;;;;;;5043363;28;20431;-85
2021/09/26 08:50:07;;;;;;;336.67;315.27;;;19.90;99.90;;;;;;5061175;28;20512;-84
2021/09/26 08:52:36;;;;;;;346.40;324.50;;;20.00;99.90;;;;;;5061285;28;20411;-84
2021/09/26 08:55:03;;;;;;;338.20;316.40;;;20.10;99.90;;;;;;5060569;28;20509;-84
2021/09/26 08:57:28;;;;;;;292.00;272.60;;;20.30;99.90;;;;;;5061552;28;20478;-84
2021/09/26 08:59:57;;;;;;;267.47;248.43;;;20.30;99.90;;;;;;5043301;28;20412;-84
2021/09/26 09:02:23;;;;;;;248.37;230.43;;;20.40;99.90;;;;;;5043597;28;20620;-84
2021/09/26 09:04:48;;;;;;;215.33;198.43;;;20.40;99.90;;;;;;5060935;28;20487;-85
2021/09/26 09:07:14;;;;;;;212.40;195.80;;;20.50;99.90;;;;;;5042125;28;20206;-84
2021/09/26 09:09:58;;;;;;;195.17;179.37;;;20.60;99.90;;;;;;5061069;28;20167;-84
2021/09/26 09:12:32;;;;;;;212.40;195.77;;;20.70;99.90;;;;;;5060666;28;20404;-85
2021/09/26 09:15:01;;;;;;;181.43;165.73;;;20.80;99.90;;;;;;5043357;28;20399;-84
2021/09/26 09:17:34;;;;;;;172.53;157.53;;;20.80;99.90;;;;;;5061051;28;20432;-84
2021/09/26 09:20:25;;;;;;;163.37;149.23;;;20.90;99.90;;;;;;5043821;28;20393;-84
2021/09/26 09:23:06;;;;;;;177.67;162.90;;;21.00;99.90;;;;;;5062094;28;20376;-84
2021/09/26 09:25:39;;;;;;;164.57;151.07;;;21.10;99.90;;;;;;5042954;28;20486;-84
2021/09/26 09:28:13;;;;;;;150.17;137.10;;;21.20;99.90;;;;;;5059351;28;20950;-84
2021/09/26 09:30:42;;;;;;;148.00;135.47;;;21.30;99.90;;;;;;5059031;28;20751;-84
2021/09/26 09:33:08;;;;;;;185.07;170.97;;;21.30;99.90;;;;;;5058586;28;20411;-83
2021/09/26 09:35:38;;;;;;;252.10;234.70;;;21.40;99.90;;;;;;5039893;28;20437;-84
2021/09/26 09:38:04;;;;;;;250.50;233.07;;;21.50;99.90;;;;;;5057730;28;20447;-84
2021/09/26 09:40:30;;;;;;;209.93;193.97;;;21.60;99.90;;;;;;5039468;28;20926;-84
2021/09/26 09:42:56;;;;;;;297.77;278.57;;;21.60;99.90;;;;;;5058137;28;20414;-84
2021/09/26 09:45:35;;;;;;;415.00;390.93;;;21.70;99.90;;;;;;5057251;28;20788;-83
2021/09/26 09:48:03;;;;;;;417.30;393.20;;;21.80;99.90;;;;;;5058010;28;20432;-84
2021/09/26 09:50:33;;;;;;;364.57;342.07;;;21.90;99.90;;;;;;5040321;28;20777;-84
2021/09/26 09:52:59;;;;;;;421.60;396.70;;;22.00;99.90;;;;;;5058524;28;20382;-84
2021/09/26 09:55:26;;;;;;;299.03;279.43;;;22.10;99.90;;;;;;5040070;28;20828;-84
2021/09/26 09:57:53;;;;;;;289.20;269.97;;;22.30;99.90;;;;;;5057716;28;20238;-85
2021/09/26 10:00:22;;;;;;;356.87;334.47;;;22.30;99.90;;;;;;5058293;28;20897;-84
2021/09/26 10:02:48;;;;;;;202.80;186.70;;;22.40;99.90;;;;;;5040514;28;20404;-84
2021/09/26 10:05:34;;;;;;;95.13;77.93;;;22.60;99.90;;;;;;5058506;28;20392;-84
2021/09/26 10:08:01;;;;;;;90.03;66.30;;;22.60;99.90;;;;;;5039427;28;20442;-85
2021/09/26 10:10:34;;;;;;;86.50;57.23;;;22.60;99.90;;;;;;5058251;28;20414;-85
2021/09/26 10:13:13;;;;;;;87.33;54.97;;;22.80;99.90;;;;;;5057920;28;20412;-84
2021/09/26 10:15:40;;;;;;;86.93;58.60;;;22.90;99.90;;;;;;5057656;28;20395;-85
2021/09/26 10:18:07;;;;;;;92.83;74.87;;;23.10;99.90;;;;;;5057816;28;20977;-85
2021/09/26 10:20:33;;;;;;;258.77;241.73;;;23.20;99.90;;;;;;5039716;28;20410;-84
2021/09/26 10:23:00;;;;;;;374.77;351.60;;;23.20;99.90;;;;;;5056504;28;20400;-85
2021/09/26 10:25:27;;;;;;;297.40;279.20;;;23.00;99.90;;;;;;5057165;28;20165;-85
2021/09/26 10:27:54;;;;;;;249.13;233.10;;;22.90;99.90;;;;;;5057113;28;20787;-84
2021/09/26 10:30:21;;;;;;;252.40;236.33;;;22.90;99.90;;;;;;5057498;28;20403;-86
2021/09/26 10:32:48;;;;;;;231.27;215.57;;;22.90;99.90;;;;;;5057748;28;20498;-85
2021/09/26 10:35:14;;;;;;;246.87;231.03;;;22.90;99.90;;;;;;5039207;28;20450;-85
2021/09/26 10:37:42;;;;;;;228.50;212.87;;;22.80;99.90;;;;;;5056699;28;20423;-85
2021/09/26 10:40:08;;;;;;;100.53;86.40;;;22.80;99.90;;;;;;5056642;28;20160;-85
2021/09/26 10:42:37;;;;;;;94.07;77.20;;;22.70;99.90;;;;;;5056410;28;20399;-84
2021/09/26 10:45:06;;;;;;;77.33;36.63;;;22.60;99.90;;;;;;5038622;28;20422;-85
2021/09/26 10:47:35;;;;;;;87.20;57.50;;;22.60;99.90;;;;;;5038005;28;20534;-84
2021/09/26 10:50:01;;;;;;;163.57;150.27;;;22.60;99.90;;;;;;5056858;28;20736;-85
2021/09/26 10:52:32;;;;;;;136.97;124.77;;;22.50;99.90;;;;;;5057001;28;20403;-85
2021/09/26 10:55:21;;;;;;;183.37;169.60;;;22.50;99.90;;;;;;5038452;28;20604;-85
2021/09/26 10:57:53;;;;;;;236.40;221.13;;;22.50;99.90;;;;;;5057117;28;20491;-85
2021/09/26 11:00:43;;;;;;;151.10;137.70;;;22.40;99.90;;;;;;5038634;28;20441;-85
2021/09/26 11:03:12;;;;;;;98.57;87.23;;;22.30;99.90;;;;;;5056527;28;20838;-85
2021/09/26 11:05:42;;;;;;;80.97;45.17;;;22.20;99.90;;;;;;5038463;28;20414;-85
2021/09/26 11:08:11;;;;;;;76.03;32.40;;;22.10;99.90;;;;;;5038776;28;20467;-85
2021/09/26 11:10:44;;;;;;;78.83;36.43;;;22.00;99.90;;;;;;5056132;28;20405;-85
2021/09/26 11:13:16;;;;;;;75.40;30.63;;;22.00;99.90;;;;;;5039707;28;20906;-85
2021/09/26 11:16:00;;;;;;;76.40;34.10;;;22.00;99.90;;;;;;5056095;28;20392;-85
2021/09/26 11:18:53;;;;;;;74.53;30.13;;;22.00;99.90;;;;;;5037896;28;20804;-85
2021/09/26 11:21:41;;;;;;;74.30;28.73;;;22.00;99.90;;;;;;5056258;28;20400;-85
2021/09/26 11:24:10;;;;;;;77.70;36.60;;;22.20;99.90;;;;;;5038036;28;20433;-85
2021/09/26 11:27:11;;;;;;;78.20;33.13;;;22.20;99.90;;;;;;5055953;28;20514;-85
2021/09/26 11:29:39;;;;;;;74.50;29.03;;;22.20;99.90;;;;;;4959661;28;20419;-85
2021/09/26 11:32:14;;;;;;;78.20;31.53;;;22.10;99.90;;;;;;5040910;28;20770;-85
2021/09/26 11:34:45;;;;;;;76.43;31.67;;;22.20;99.90;;;;;;5055782;28;20387;-85
2021/09/26 11:37:13;;;;;;;76.90;29.00;;;22.20;99.90;;;;;;5038265;28;20427;-84
2021/09/26 11:39:41;;;;;;;74.37;28.53;;;22.10;99.90;;;;;;5055754;28;21016;-85
2021/09/26 11:42:30;;;;;;;80.33;30.90;;;22.30;99.90;;;;;;5056245;28;20490;-85
2021/09/26 11:44:58;;;;;;;77.47;37.17;;;22.40;99.90;;;;;;5055844;28;20415;-85
2021/09/26 11:47:25;;;;;;;75.97;31.10;;;22.30;99.90;;;;;;5055440;28;20426;-85
2021/09/26 11:49:51;;;;;;;79.40;31.80;;;22.40;99.90;;;;;;5055497;28;20460;-84
2021/09/26 11:52:20;;;;;;;84.87;46.40;;;22.40;99.90;;;;;;5055203;28;20494;-85
2021/09/26 11:54:46;;;;;;;84.80;55.87;;;22.60;99.90;;;;;;5055674;28;20450;-85
2021/09/26 11:57:13;;;;;;;88.60;60.17;;;22.50;99.90;;;;;;5037939;28;20427;-85
2021/09/26 11:59:42;;;;;;;75.70;31.90;;;22.50;99.90;;;;;;5055725;28;20529;-85
2021/09/26 12:02:12;;;;;;;80.23;42.27;;;22.50;99.90;;;;;;5056452;28;20399;-84
2021/09/26 12:04:38;;;;;;;78.23;38.27;;;22.50;99.90;;;;;;5057655;28;20786;-85
2021/09/26 12:07:06;;;;;;;78.43;37.63;;;22.40;99.90;;;;;;5056154;28;20518;-84
2021/09/26 12:09:49;;;;;;;79.40;37.57;;;22.50;99.90;;;;;;5037767;28;20477;-84
2021/09/26 12:12:20;;;;;;;87.87;55.63;;;22.40;99.90;;;;;;5056221;28;20391;-85
2021/09/26 12:14:49;;;;;;;80.03;40.27;;;22.30;99.90;;;;;;5057221;28;20422;-84
2021/09/26 12:17:27;;;;;;;77.90;32.23;;;22.30;99.90;;;;;;5056657;28;20451;-84
2021/09/26 12:20:06;;;;;;;82.27;46.43;;;22.30;99.90;;;;;;5037827;28;20853;-85
2021/09/26 12:22:32;;;;;;;81.60;43.70;;;22.30;99.90;;;;;;5055146;28;20384;-84